Time;durP1;ratioP1;P1;durP2;ratioP2;P2;SDS_P1;SDS_P2;PMS_P1;PMS_P2;Temp;Humidity;BMP_temperature;BMP_pressure;BME280_temperature;BME280_humidity;BME280_pressure;Samples;Min_cycle;Max_cycle;Signal;HPM_P1;HPM_P2
2022/05/25 00:00:25;;;;;;;8.45;7.95;;;;;;;;;;5224433;28;20045;-84
2022/05/25 00:02:56;;;;;;;7.95;7.45;;;;;;;;;;5200391;28;20052;-84
2022/05/25 00:05:26;;;;;;;8.23;7.47;;;;;;;;;;5215281;28;20025;-84
2022/05/25 00:07:57;;;;;;;7.55;7.05;;;;;;;;;;5197639;28;20292;-84
2022/05/25 00:10:27;;;;;;;7.95;6.95;;;;;;;;;;5197749;28;20045;-84
2022/05/25 00:12:57;;;;;;;8.25;7.35;;;;;;;;;;5214714;28;20029;-84
2022/05/25 00:15:28;;;;;;;8.73;8.13;;;;;;;;;;5196397;28;20017;-84
2022/05/25 00:17:58;;;;;;;7.40;6.90;;;;;;;;;;5213037;28;20056;-84
2022/05/25 00:20:28;;;;;;;7.07;6.65;;;;;;;;;;5196366;28;20017;-83
2022/05/25 00:22:58;;;;;;;8.43;7.22;;;;;;;;;;5214665;28;20029;-83
2022/05/25 00:25:32;;;;;;;6.35;6.05;;;;;;;;;;5196068;28;20099;-83
2022/05/25 00:28:07;;;;;;;10.27;8.77;;;;;;;;;;5194001;28;20017;-84
2022/05/25 00:30:39;;;;;;;8.23;7.47;;;;;;;;;;5197487;28;20483;-84
2022/05/25 00:33:09;;;;;;;9.40;6.43;;;;;;;;;;5196737;28;20017;-84
2022/05/25 00:35:41;;;;;;;8.18;7.22;;;;;;;;;;5212758;28;20028;-84
2022/05/25 00:38:11;;;;;;;8.23;7.63;;;;;;;;;;5194813;28;20553;-84
2022/05/25 00:40:43;;;;;;;8.03;7.63;;;;;;;;;;5210011;28;20021;-84
2022/05/25 00:43:13;;;;;;;7.28;6.45;;;;;;;;;;5209342;28;20276;-84
2022/05/25 00:45:46;;;;;;;6.85;6.43;;;;;;;;;;5190486;28;20129;-84
2022/05/25 00:48:36;;;;;;;8.00;7.50;;;;;;;;;;5208026;28;20438;-84
2022/05/25 00:51:12;;;;;;;7.43;5.63;;;;;;;;;;5188749;28;20068;-84
2022/05/25 00:53:44;;;;;;;6.75;6.32;;;;;;;;;;5207421;28;20451;-85
2022/05/25 00:56:18;;;;;;;6.18;5.88;;;;;;;;;;5213470;28;20025;-84
2022/05/25 00:58:52;;;;;;;6.20;5.60;;;;;;;;;;5225336;28;20463;-84
2022/05/25 01:01:22;;;;;;;8.02;7.30;;;;;;;;;;5225944;28;20026;-84
2022/05/25 01:03:52;;;;;;;6.82;6.22;;;;;;;;;;5207805;28;20044;-83
2022/05/25 01:06:29;;;;;;;6.87;6.37;;;;;;;;;;5224946;28;20035;-84
2022/05/25 01:09:19;;;;;;;6.80;6.30;;;;;;;;;;5225670;28;20253;-85
2022/05/25 01:11:53;;;;;;;6.90;6.25;;;;;;;;;;5159252;28;20025;-84
2022/05/25 01:14:23;;;;;;;6.93;5.82;;;;;;;;;;5225506;28;20037;-84
2022/05/25 01:17:22;;;;;;;6.27;5.67;;;;;;;;;;5207198;28;20002;-84
2022/05/25 01:20:00;;;;;;;5.72;5.25;;;;;;;;;;5137548;28;20037;-84
2022/05/25 01:22:45;;;;;;;4.97;4.65;;;;;;;;;;5223736;28;20022;-85
2022/05/25 01:25:28;;;;;;;6.78;6.22;;;;;;;;;;5223952;28;20021;-85
2022/05/25 01:28:09;;;;;;;4.82;4.60;;;;;;;;;;5205129;28;20021;-84
2022/05/25 01:30:50;;;;;;;6.40;5.50;;;;;;;;;;5215915;28;20069;-84
2022/05/25 01:33:59;;;;;;;5.68;5.15;;;;;;;;;;5205248;28;20052;-84
2022/05/25 01:36:33;;;;;;;4.80;4.25;;;;;;;;;;5105458;29;20059;-84
2022/05/25 01:39:16;;;;;;;6.60;6.20;;;;;;;;;;5097329;29;20119;-84
2022/05/25 01:42:01;;;;;;;7.68;7.00;;;;;;;;;;5093732;29;20154;-84
2022/05/25 01:44:37;;;;;;;6.18;5.78;;;;;;;;;;5105961;29;20031;-84
2022/05/25 01:47:11;;;;;;;7.70;5.78;;;;;;;;;;5122579;28;20067;-84
2022/05/25 01:52:44;;;;;;;4.95;4.65;;;;;;;;;;5241417;22;20072;-65
2022/05/25 01:55:23;;;;;;;5.47;4.95;;;;;;;;;;5207093;28;20086;-65
2022/05/25 01:57:56;;;;;;;6.15;5.70;;;;;;;;;;5206662;28;20028;-64
2022/05/25 02:00:28;;;;;;;6.03;5.63;;;;;;;;;;5188763;28;20017;-65
2022/05/25 02:05:56;;;;;;;6.32;5.82;;;;;;;;;;5206409;28;20017;-65
2022/05/25 02:08:35;;;;;;;6.03;5.63;;;;;;;;;;5188939;28;20024;-63
2022/05/25 02:11:24;;;;;;;8.25;4.03;;;;;;;;;;5188795;28;20025;-66
2022/05/25 02:14:03;;;;;;;6.17;5.57;;;;;;;;;;5188378;28;20030;-64
2022/05/25 02:16:49;;;;;;;5.70;5.20;;;;;;;;;;5188264;28;20029;-66
2022/05/25 02:19:19;;;;;;;7.53;5.63;;;;;;;;;;5188759;28;20026;-66
2022/05/25 02:21:54;;;;;;;5.07;4.78;;;;;;;;;;5188603;28;20116;-65
2022/05/25 02:24:42;;;;;;;6.55;6.07;;;;;;;;;;5188396;28;20017;-63
2022/05/25 02:27:16;;;;;;;6.28;5.88;;;;;;;;;;5187972;28;20029;-65
2022/05/25 02:29:48;;;;;;;6.93;5.85;;;;;;;;;;5206095;28;20024;-66
2022/05/25 02:32:28;;;;;;;5.88;5.57;;;;;;;;;;5188427;28;20025;-65
2022/05/25 02:34:59;;;;;;;6.70;5.93;;;;;;;;;;5197577;28;20049;-65
2022/05/25 02:37:30;;;;;;;5.18;4.78;;;;;;;;;;5208679;28;20503;-62
2022/05/25 02:40:02;;;;;;;5.90;5.35;;;;;;;;;;5208555;28;20063;-65
2022/05/25 02:42:33;;;;;;;6.18;5.72;;;;;;;;;;5208482;28;20059;-66
2022/05/25 02:45:03;;;;;;;5.65;5.28;;;;;;;;;;5208209;28;20620;-65
2022/05/25 02:47:34;;;;;;;5.78;5.32;;;;;;;;;;5208732;28;20024;-66
2022/05/25 02:50:04;;;;;;;10.75;6.30;;;;;;;;;;5208618;28;20056;-63
2022/05/25 02:52:35;;;;;;;6.38;4.70;;;;;;;;;;5208270;28;20037;-65
2022/05/25 02:55:05;;;;;;;6.85;6.18;;;;;;;;;;5208294;28;20469;-65
2022/05/25 02:57:36;;;;;;;6.50;5.82;;;;;;;;;;5208593;28;20024;-66
2022/05/25 03:00:08;;;;;;;5.82;5.18;;;;;;;;;;5207524;28;20451;-61
2022/05/25 03:02:38;;;;;;;5.18;4.95;;;;;;;;;;5207777;28;20028;-61
2022/05/25 03:05:09;;;;;;;5.53;5.22;;;;;;;;;;5208099;28;20384;-61
2022/05/25 03:07:40;;;;;;;5.53;5.22;;;;;;;;;;5207919;28;20033;-62
2022/05/25 03:10:10;;;;;;;6.25;5.85;;;;;;;;;;5208195;28;20111;-61
2022/05/25 03:12:41;;;;;;;5.00;4.80;;;;;;;;;;5207827;28;20035;-62
2022/05/25 03:15:13;;;;;;;6.47;5.97;;;;;;;;;;5207219;28;20469;-63
2022/05/25 03:17:43;;;;;;;7.45;6.30;;;;;;;;;;5200468;28;20492;-62
2022/05/25 03:20:14;;;;;;;6.88;6.38;;;;;;;;;;5186973;28;20023;-61
2022/05/25 03:22:44;;;;;;;6.00;5.60;;;;;;;;;;5187323;28;20025;-64
2022/05/25 03:25:15;;;;;;;7.93;7.20;;;;;;;;;;5187333;28;20062;-63
2022/05/25 03:27:45;;;;;;;6.55;6.07;;;;;;;;;;5187320;28;20024;-62
2022/05/25 03:30:16;;;;;;;6.57;6.07;;;;;;;;;;5187877;28;20029;-59
2022/05/25 03:32:47;;;;;;;9.80;7.88;;;;;;;;;;5187359;28;20026;-61
2022/05/25 03:35:17;;;;;;;5.45;5.15;;;;;;;;;;5186868;28;20384;-63
2022/05/25 03:37:47;;;;;;;6.10;5.68;;;;;;;;;;5187050;28;20030;-61
2022/05/25 03:40:18;;;;;;;7.82;5.72;;;;;;;;;;5187408;28;20398;-62
2022/05/25 03:42:48;;;;;;;6.35;5.85;;;;;;;;;;5187507;28;20084;-62
2022/05/25 03:45:19;;;;;;;9.13;7.70;;;;;;;;;;5186979;28;20021;-62
2022/05/25 03:47:49;;;;;;;8.07;7.40;;;;;;;;;;5187225;28;20072;-65
2022/05/25 03:50:20;;;;;;;14.73;6.70;;;;;;;;;;5186951;28;20041;-63
2022/05/25 03:52:50;;;;;;;6.45;5.95;;;;;;;;;;5186726;28;20442;-63
2022/05/25 03:55:21;;;;;;;7.53;7.07;;;;;;;;;;5186357;28;20022;-63
2022/05/25 03:57:51;;;;;;;6.32;5.93;;;;;;;;;;5187040;28;20034;-61
2022/05/25 04:00:22;;;;;;;9.18;7.38;;;;;;;;;;5187385;28;20021;-61
2022/05/25 04:02:52;;;;;;;10.18;5.93;;;;;;;;;;5189564;28;20034;-62
2022/05/25 04:05:22;;;;;;;7.05;6.55;;;;;;;;;;5190400;28;20017;-64
2022/05/25 04:07:55;;;;;;;6.10;5.68;;;;;;;;;;5208630;28;20373;-66
2022/05/25 04:10:25;;;;;;;6.97;6.47;;;;;;;;;;5209798;28;20105;-64
2022/05/25 04:12:56;;;;;;;7.55;6.90;;;;;;;;;;5211171;28;20112;-61
2022/05/25 04:15:27;;;;;;;7.10;6.50;;;;;;;;;;5210807;28;20029;-63
2022/05/25 04:17:57;;;;;;;6.65;6.15;;;;;;;;;;5211148;28;20048;-63
2022/05/25 04:20:29;;;;;;;7.18;6.63;;;;;;;;;;5210973;28;20017;-64
2022/05/25 04:23:00;;;;;;;8.55;7.80;;;;;;;;;;5211014;28;20025;-65
2022/05/25 04:25:30;;;;;;;6.47;5.68;;;;;;;;;;5210652;28;20036;-62
2022/05/25 04:28:00;;;;;;;6.40;5.90;;;;;;;;;;5211223;28;20025;-61
2022/05/25 04:30:30;;;;;;;6.45;6.15;;;;;;;;;;5210887;28;20013;-61
2022/05/25 04:33:01;;;;;;;12.27;6.72;;;;;;;;;;5228868;28;20029;-62
2022/05/25 04:35:31;;;;;;;7.03;6.35;;;;;;;;;;5210283;28;20575;-62
2022/05/25 04:38:02;;;;;;;14.93;7.50;;;;;;;;;;5227947;28;20025;-64
2022/05/25 04:40:34;;;;;;;8.82;5.88;;;;;;;;;;5210127;28;20012;-63
2022/05/25 04:43:06;;;;;;;12.40;7.97;;;;;;;;;;5210619;28;20393;-64
2022/05/25 04:45:37;;;;;;;8.20;6.38;;;;;;;;;;5210560;28;20013;-61
2022/05/25 04:48:08;;;;;;;5.03;4.78;;;;;;;;;;5210848;28;20044;-61
2022/05/25 04:50:40;;;;;;;5.70;5.43;;;;;;;;;;5228450;28;20403;-62
2022/05/25 04:53:11;;;;;;;7.43;5.40;;;;;;;;;;5210685;28;20044;-61
2022/05/25 04:58:33;;;;;;;5.65;5.28;;;;;;;;;;5228609;28;20312;-61
2022/05/25 05:01:04;;;;;;;7.00;6.45;;;;;;;;;;5210476;28;20274;-61
2022/05/25 05:03:35;;;;;;;5.35;5.05;;;;;;;;;;5227743;28;20044;-61
2022/05/25 05:06:06;;;;;;;6.13;5.55;;;;;;;;;;5197684;28;20129;-61
2022/05/25 05:08:37;;;;;;;7.15;6.75;;;;;;;;;;5188839;28;20482;-64
2022/05/25 05:11:11;;;;;;;6.57;5.97;;;;;;;;;;5189407;28;20024;-61
2022/05/25 05:13:42;;;;;;;7.22;6.60;;;;;;;;;;5188984;28;20029;-61
2022/05/25 05:16:14;;;;;;;9.48;7.88;;;;;;;;;;5205918;28;20335;-63
2022/05/25 05:18:45;;;;;;;5.93;5.57;;;;;;;;;;5189059;28;20610;-64
2022/05/25 05:21:16;;;;;;;8.13;6.28;;;;;;;;;;5189370;28;20025;-60
2022/05/25 05:23:46;;;;;;;13.80;7.05;;;;;;;;;;5186676;28;20095;-60
2022/05/25 05:26:17;;;;;;;5.47;4.75;;;;;;;;;;5187648;28;20013;-65
2022/05/25 05:28:49;;;;;;;6.15;5.80;;;;;;;;;;5189482;28;20040;-64
2022/05/25 05:31:20;;;;;;;6.68;6.20;;;;;;;;;;5202419;28;20020;-64
2022/05/25 05:33:50;;;;;;;9.15;7.88;;;;;;;;;;5206705;28;20017;-61
2022/05/25 05:36:22;;;;;;;7.10;6.50;;;;;;;;;;5206483;28;20035;-63
2022/05/25 05:39:13;;;;;;;7.55;6.85;;;;;;;;;;5223968;28;20017;-63
2022/05/25 05:41:55;;;;;;;13.63;8.63;;;;;;;;;;5205583;28;20028;-63
2022/05/25 05:44:27;;;;;;;7.28;6.88;;;;;;;;;;5207217;28;20060;-63
2022/05/25 05:46:59;;;;;;;6.57;5.97;;;;;;;;;;5225429;28;20009;-64
2022/05/25 05:49:30;;;;;;;10.38;7.38;;;;;;;;;;5209344;28;20017;-64
2022/05/25 05:52:00;;;;;;;6.90;6.50;;;;;;;;;;5209506;28;20366;-65
2022/05/25 05:54:31;;;;;;;6.55;6.10;;;;;;;;;;5209413;28;20502;-63
2022/05/25 05:57:01;;;;;;;6.80;6.25;;;;;;;;;;5209571;28;20626;-62
2022/05/25 05:59:31;;;;;;;5.35;5.05;;;;;;;;;;5209138;28;20108;-60
2022/05/25 06:02:02;;;;;;;7.15;6.55;;;;;;;;;;5227561;28;20021;-63
2022/05/25 06:04:33;;;;;;;7.30;6.68;;;;;;;;;;5208900;28;20029;-66
2022/05/25 06:07:04;;;;;;;11.73;6.43;;;;;;;;;;5226286;28;20047;-65
2022/05/25 06:09:34;;;;;;;7.75;7.13;;;;;;;;;;5207759;28;20488;-67
2022/05/25 06:12:05;;;;;;;6.63;5.95;;;;;;;;;;5209480;28;20028;-62
2022/05/25 06:14:35;;;;;;;9.15;5.10;;;;;;;;;;5208914;28;20043;-65
2022/05/25 06:19:55;;;;;;;10.68;4.90;;;;;;;;;;5227450;28;20035;-62
2022/05/25 06:22:26;;;;;;;18.73;6.53;;;;;;;;;;5209106;28;20112;-63
2022/05/25 06:24:56;;;;;;;7.80;7.00;;;;;;;;;;5207987;28;20013;-64
2022/05/25 06:27:26;;;;;;;6.10;5.35;;;;;;;;;;5208952;28;20389;-64
2022/05/25 06:29:56;;;;;;;5.18;4.15;;;;;;;;;;5208928;28;20013;-64
2022/05/25 06:32:27;;;;;;;5.65;5.20;;;;;;;;;;5208908;28;20028;-64
2022/05/25 06:34:57;;;;;;;3.97;3.67;;;;;;;;;;5208606;28;20029;-64
2022/05/25 06:37:28;;;;;;;4.97;4.43;;;;;;;;;;5208626;28;20075;-65
2022/05/25 06:40:00;;;;;;;4.82;4.53;;;;;;;;;;5226580;28;20469;-63
2022/05/25 06:42:30;;;;;;;6.72;6.05;;;;;;;;;;5208345;28;20017;-61
2022/05/25 06:45:01;;;;;;;15.63;6.40;;;;;;;;;;5208387;28;20127;-62
2022/05/25 06:47:32;;;;;;;9.43;6.90;;;;;;;;;;5208366;28;20024;-63
2022/05/25 06:50:02;;;;;;;6.50;5.10;;;;;;;;;;5208299;28;20111;-63
2022/05/25 06:52:33;;;;;;;5.03;4.57;;;;;;;;;;5208362;28;20029;-63
2022/05/25 06:55:03;;;;;;;6.78;4.95;;;;;;;;;;5208298;28;20111;-61
2022/05/25 06:57:34;;;;;;;4.40;3.95;;;;;;;;;;5226460;28;20423;-63
2022/05/25 07:00:05;;;;;;;6.22;4.07;;;;;;;;;;5208503;28;20024;-64
2022/05/25 07:02:35;;;;;;;4.72;4.43;;;;;;;;;;5226012;28;20063;-63
2022/05/25 07:05:05;;;;;;;4.32;3.75;;;;;;;;;;5208111;28;20100;-60
2022/05/25 07:07:38;;;;;;;5.43;5.05;;;;;;;;;;5208458;28;20112;-63
2022/05/25 07:10:08;;;;;;;3.97;3.17;;;;;;;;;;5208494;28;20021;-66
2022/05/25 07:12:39;;;;;;;4.35;4.00;;;;;;;;;;5226144;28;20374;-65
2022/05/25 07:15:09;;;;;;;5.20;3.88;;;;;;;;;;5225804;28;20055;-62
2022/05/25 07:17:40;;;;;;;3.25;2.58;;;;;;;;;;5208550;28;20089;-63
2022/05/25 07:20:10;;;;;;;7.05;3.92;;;;;;;;;;5208466;28;20021;-63
2022/05/25 07:22:41;;;;;;;3.53;3.22;;;;;;;;;;5208354;28;20025;-64
2022/05/25 07:25:11;;;;;;;3.97;3.65;;;;;;;;;;5208106;28;20021;-62
2022/05/25 07:27:41;;;;;;;4.75;4.15;;;;;;;;;;5208694;28;20120;-68
2022/05/25 07:30:13;;;;;;;6.63;3.30;;;;;;;;;;5208487;28;20446;-64
2022/05/25 07:32:44;;;;;;;4.25;4.05;;;;;;;;;;5208329;28;20473;-62
2022/05/25 07:35:17;;;;;;;3.67;3.20;;;;;;;;;;5208464;28;20469;-63
2022/05/25 07:37:50;;;;;;;2.63;2.53;;;;;;;;;;5212394;28;20025;-66
2022/05/25 07:40:26;;;;;;;8.93;4.05;;;;;;;;;;5212332;28;20029;-64
2022/05/25 07:43:00;;;;;;;2.90;2.70;;;;;;;;;;5212294;28;20021;-66
2022/05/25 07:45:32;;;;;;;4.35;3.15;;;;;;;;;;5229605;28;20017;-61
2022/05/25 07:48:02;;;;;;;4.45;2.85;;;;;;;;;;5230358;28;20486;-61
2022/05/25 07:56:09;;;;;;;6.32;3.40;;;;;;;;;;5204601;28;20091;-64
2022/05/25 07:58:39;;;;;;;4.20;3.17;;;;;;;;;;5193863;28;20017;-64
2022/05/25 08:01:12;;;;;;;6.43;2.97;;;;;;;;;;5189270;28;20018;-65
2022/05/25 08:06:32;;;;;;;2.47;2.38;;;;;;;;;;5208487;28;20045;-62
2022/05/25 08:09:03;;;;;;;3.85;3.60;;;;;;;;;;5190346;28;20022;-63
2022/05/25 08:11:34;;;;;;;3.05;2.58;;;;;;;;;;5190882;28;20477;-63
2022/05/25 08:14:05;;;;;;;3.83;2.92;;;;;;;;;;5208372;28;20017;-63
2022/05/25 08:16:35;;;;;;;2.58;2.42;;;;;;;;;;5208257;28;20032;-63
2022/05/25 08:19:06;;;;;;;2.50;2.28;;;;;;;;;;5206726;28;20496;-64
2022/05/25 08:21:36;;;;;;;5.60;3.15;;;;;;;;;;5190852;28;20056;-62
2022/05/25 08:24:06;;;;;;;5.05;3.03;;;;;;;;;;5206198;28;20017;-63
2022/05/25 08:26:37;;;;;;;3.10;2.92;;;;;;;;;;5206668;28;20028;-63
2022/05/25 08:29:07;;;;;;;1.73;1.73;;;;;;;;;;5188650;28;20116;-62
2022/05/25 08:31:37;;;;;;;5.38;1.92;;;;;;;;;;5189836;28;20416;-63
2022/05/25 08:34:08;;;;;;;2.97;2.75;;;;;;;;;;5189172;28;20017;-63
2022/05/25 08:36:38;;;;;;;10.32;2.67;;;;;;;;;;5189365;28;20256;-61
2022/05/25 08:39:08;;;;;;;9.77;3.45;;;;;;;;;;5206985;28;20366;-63
2022/05/25 08:41:39;;;;;;;2.63;2.53;;;;;;;;;;5189462;28;20026;-64
2022/05/25 08:44:10;;;;;;;3.55;2.53;;;;;;;;;;5189350;28;20108;-64
2022/05/25 08:46:41;;;;;;;3.78;2.33;;;;;;;;;;5188767;28;20091;-64
2022/05/25 08:49:12;;;;;;;2.40;2.20;;;;;;;;;;5188825;28;20014;-62
2022/05/25 08:52:07;;;;;;;2.45;2.35;;;;;;;;;;5189068;28;20033;-61
2022/05/25 08:54:37;;;;;;;6.53;2.95;;;;;;;;;;5206733;28;20032;-63
2022/05/25 08:57:13;;;;;;;2.97;2.75;;;;;;;;;;5201654;28;20461;-62
2022/05/25 08:59:59;;;;;;;4.70;3.83;;;;;;;;;;5209600;28;20032;-62
2022/05/25 09:02:33;;;;;;;8.27;2.53;;;;;;;;;;5209935;28;20443;-62
2022/05/25 09:05:06;;;;;;;4.30;2.03;;;;;;;;;;5209522;28;20017;-62
2022/05/25 09:07:37;;;;;;;3.47;2.60;;;;;;;;;;5227301;28;20071;-63
2022/05/25 09:10:08;;;;;;;6.25;2.58;;;;;;;;;;5220905;28;20052;-64
2022/05/25 09:12:41;;;;;;;4.32;2.40;;;;;;;;;;5195509;28;20462;-64
2022/05/25 09:15:28;;;;;;;3.28;2.33;;;;;;;;;;5196914;28;20481;-62
2022/05/25 09:18:04;;;;;;;2.40;1.85;;;;;;;;;;5188772;28;20022;-62
2022/05/25 09:20:37;;;;;;;1.48;1.48;;;;;;;;;;5188482;28;20544;-63
2022/05/25 09:23:08;;;;;;;2.80;1.73;;;;;;;;;;5188550;28;20025;-62
2022/05/25 09:25:39;;;;;;;3.95;3.05;;;;;;;;;;5204770;28;20017;-63
2022/05/25 09:28:17;;;;;;;3.10;2.80;;;;;;;;;;5188632;28;20017;-63
2022/05/25 09:30:50;;;;;;;1.58;1.38;;;;;;;;;;5188726;28;20486;-62
2022/05/25 09:33:26;;;;;;;3.83;2.40;;;;;;;;;;5188412;28;20482;-63
2022/05/25 09:35:59;;;;;;;3.47;1.90;;;;;;;;;;5188419;28;20025;-64
2022/05/25 09:38:30;;;;;;;2.90;1.52;;;;;;;;;;5188449;28;20230;-63
2022/05/25 09:41:06;;;;;;;11.73;2.97;;;;;;;;;;5204766;28;20375;-63
2022/05/25 09:43:36;;;;;;;1.50;1.50;;;;;;;;;;5187607;28;20021;-63
2022/05/25 09:46:08;;;;;;;2.38;1.95;;;;;;;;;;5188418;28;20163;-62
2022/05/25 09:48:48;;;;;;;1.55;1.52;;;;;;;;;;5188444;28;20453;-63
2022/05/25 09:51:18;;;;;;;2.22;2.05;;;;;;;;;;5188389;28;20029;-63
2022/05/25 09:53:54;;;;;;;2.67;2.53;;;;;;;;;;5203793;28;20044;-63
2022/05/25 09:56:28;;;;;;;2.90;2.70;;;;;;;;;;5187963;28;20021;-62
2022/05/25 09:59:01;;;;;;;2.75;2.47;;;;;;;;;;5203744;28;20025;-63
2022/05/25 10:01:33;;;;;;;8.57;2.92;;;;;;;;;;5188439;28;20059;-62
2022/05/25 10:04:04;;;;;;;2.65;1.70;;;;;;;;;;5187870;28;20067;-64
2022/05/25 10:06:48;;;;;;;1.90;1.80;;;;;;;;;;5188039;28;20018;-63
2022/05/25 10:09:21;;;;;;;8.13;2.22;;;;;;;;;;5188006;28;20334;-63
2022/05/25 10:11:52;;;;;;;6.75;1.85;;;;;;;;;;5187990;28;20020;-63
2022/05/25 10:14:26;;;;;;;10.70;1.65;;;;;;;;;;5187803;28;20029;-62
2022/05/25 10:16:58;;;;;;;4.07;1.88;;;;;;;;;;5204149;28;20029;-63
2022/05/25 10:19:28;;;;;;;1.95;1.67;;;;;;;;;;5187723;28;20061;-62
2022/05/25 10:21:59;;;;;;;1.08;1.08;;;;;;;;;;5204215;28;20087;-62
2022/05/25 10:24:40;;;;;;;6.72;2.00;;;;;;;;;;5205625;28;20030;-63
2022/05/25 10:27:26;;;;;;;1.33;1.33;;;;;;;;;;5187362;28;20025;-63
2022/05/25 10:38:29;;;;;;;2.05;1.90;;;;;;;;;;5205555;28;20124;-63
2022/05/25 10:41:37;;;;;;;1.70;1.65;;;;;;;;;;5187472;28;20477;-63
2022/05/25 10:44:12;;;;;;;8.13;1.98;;;;;;;;;;5204572;28;20041;-62
2022/05/25 10:46:49;;;;;;;1.77;1.67;;;;;;;;;;5187289;28;20010;-63
2022/05/25 10:49:43;;;;;;;4.35;3.75;;;;;;;;;;5187229;28;20370;-63
2022/05/25 10:52:39;;;;;;;1.40;1.30;;;;;;;;;;5187240;28;20033;-61
2022/05/25 10:55:09;;;;;;;3.38;2.60;;;;;;;;;;5184088;28;20497;-62
2022/05/25 10:57:52;;;;;;;1.73;1.63;;;;;;;;;;5203671;28;20014;-62
2022/05/25 11:00:22;;;;;;;1.50;1.40;;;;;;;;;;5203692;28;20025;-63
2022/05/25 11:03:02;;;;;;;2.40;1.60;;;;;;;;;;5203166;28;20026;-63
2022/05/25 11:05:40;;;;;;;5.18;1.85;;;;;;;;;;5203517;28;20367;-63
2022/05/25 11:08:17;;;;;;;1.63;1.52;;;;;;;;;;5187251;28;20014;-65
2022/05/25 11:11:03;;;;;;;1.60;1.50;;;;;;;;;;5189205;28;20018;-64
2022/05/25 11:13:51;;;;;;;2.17;2.00;;;;;;;;;;5191177;28;20021;-64
2022/05/25 11:16:33;;;;;;;2.33;1.70;;;;;;;;;;5207812;28;20496;-64
2022/05/25 11:19:24;;;;;;;3.65;1.92;;;;;;;;;;5190944;28;20104;-64
2022/05/25 11:21:58;;;;;;;1.65;1.55;;;;;;;;;;5190414;28;20149;-64
2022/05/25 11:24:45;;;;;;;1.30;1.30;;;;;;;;;;5206433;28;20075;-63
2022/05/25 11:27:31;;;;;;;2.92;1.52;;;;;;;;;;5190651;28;20049;-62
2022/05/25 11:30:01;;;;;;;2.13;1.67;;;;;;;;;;5206758;28;20018;-64
2022/05/25 11:32:50;;;;;;;1.90;1.70;;;;;;;;;;5206748;28;20033;-62
2022/05/25 11:35:35;;;;;;;2.72;2.45;;;;;;;;;;5190249;28;20025;-61
2022/05/25 11:38:05;;;;;;;2.08;1.98;;;;;;;;;;5190135;28;20583;-62
2022/05/25 11:40:36;;;;;;;2.63;2.13;;;;;;;;;;5206783;28;20056;-62
2022/05/25 11:43:27;;;;;;;7.22;1.83;;;;;;;;;;5206585;28;20504;-63
2022/05/25 11:46:01;;;;;;;8.85;2.03;;;;;;;;;;5190222;28;20021;-61
2022/05/25 11:48:34;;;;;;;5.18;2.08;;;;;;;;;;5206515;28;20021;-63
2022/05/25 11:51:04;;;;;;;1.38;1.38;;;;;;;;;;5207527;28;20049;-63
2022/05/25 11:53:44;;;;;;;1.63;1.52;;;;;;;;;;5206433;28;20353;-62
2022/05/25 11:56:17;;;;;;;1.33;1.27;;;;;;;;;;5206331;28;20021;-62
2022/05/25 11:59:07;;;;;;;4.70;1.95;;;;;;;;;;5206370;28;20033;-63
2022/05/25 12:01:42;;;;;;;2.10;1.55;;;;;;;;;;5159749;28;20037;-62
2022/05/25 12:04:49;;;;;;;1.60;1.50;;;;;;;;;;5189463;28;20033;-61
2022/05/25 12:07:34;;;;;;;3.40;1.90;;;;;;;;;;5127924;28;20058;-62
2022/05/25 12:10:16;;;;;;;1.73;1.63;;;;;;;;;;5203720;28;20065;-63
2022/05/25 12:12:53;;;;;;;2.30;2.20;;;;;;;;;;5207216;28;20290;-64
2022/05/25 12:15:30;;;;;;;1.27;1.27;;;;;;;;;;5190444;28;20025;-63
2022/05/25 12:18:23;;;;;;;2.90;2.35;;;;;;;;;;5190589;28;20032;-63
2022/05/25 12:20:56;;;;;;;3.00;2.70;;;;;;;;;;5190519;28;20021;-63
2022/05/25 12:23:50;;;;;;;2.88;2.10;;;;;;;;;;5188854;28;20025;-62
2022/05/25 12:26:26;;;;;;;7.07;1.85;;;;;;;;;;5182468;28;20040;-63
2022/05/25 12:29:17;;;;;;;16.95;2.25;;;;;;;;;;5190258;28;20036;-62
2022/05/25 12:31:50;;;;;;;6.97;1.50;;;;;;;;;;5189602;28;20079;-62
2022/05/25 12:34:25;;;;;;;3.95;2.25;;;;;;;;;;5207579;28;20021;-63
2022/05/25 12:36:55;;;;;;;2.90;2.53;;;;;;;;;;5190105;28;20025;-63
2022/05/25 12:39:44;;;;;;;6.10;1.80;;;;;;;;;;5190168;28;20021;-64
2022/05/25 12:42:24;;;;;;;3.63;2.40;;;;;;;;;;5206382;28;20084;-63
2022/05/25 12:50:47;;;;;;;1.50;1.48;;;;;;;;;;5208012;28;20029;-64
2022/05/25 12:53:18;;;;;;;2.38;2.10;;;;;;;;;;5206076;28;20463;-62
2022/05/25 12:55:58;;;;;;;5.28;1.58;;;;;;;;;;5204552;28;20026;-63
2022/05/25 12:58:31;;;;;;;4.15;2.13;;;;;;;;;;5208165;28;20032;-64
2022/05/25 13:01:27;;;;;;;6.00;2.05;;;;;;;;;;5206341;28;20367;-62
2022/05/25 13:03:57;;;;;;;3.30;1.88;;;;;;;;;;5189464;28;20025;-63
2022/05/25 13:06:35;;;;;;;2.00;1.90;;;;;;;;;;5206303;28;20074;-63
2022/05/25 13:09:07;;;;;;;3.03;2.58;;;;;;;;;;5206150;28;20029;-62
2022/05/25 13:11:41;;;;;;;1.52;1.52;;;;;;;;;;5189679;28;20013;-63
2022/05/25 13:14:16;;;;;;;7.63;2.08;;;;;;;;;;5205747;28;20093;-61
2022/05/25 13:16:47;;;;;;;4.30;3.72;;;;;;;;;;5205859;28;20028;-63
2022/05/25 13:19:33;;;;;;;2.10;1.85;;;;;;;;;;5205828;28;20494;-63
2022/05/25 13:22:04;;;;;;;1.45;1.45;;;;;;;;;;5206422;28;20504;-63
2022/05/25 13:24:50;;;;;;;1.50;1.48;;;;;;;;;;5207016;28;20025;-63
2022/05/25 13:27:40;;;;;;;4.43;2.25;;;;;;;;;;5189497;28;20115;-61
2022/05/25 13:30:11;;;;;;;2.13;1.65;;;;;;;;;;5178867;28;20025;-61
2022/05/25 13:32:56;;;;;;;1.30;1.20;;;;;;;;;;5205904;28;20028;-62
2022/05/25 13:35:32;;;;;;;1.42;1.40;;;;;;;;;;5188905;28;20492;-62
2022/05/25 13:38:02;;;;;;;2.88;1.75;;;;;;;;;;5190573;28;20017;-62
2022/05/25 13:40:38;;;;;;;1.90;1.80;;;;;;;;;;5206634;28;20066;-62
2022/05/25 13:43:15;;;;;;;2.10;1.48;;;;;;;;;;5190269;28;20047;-62
2022/05/25 13:45:47;;;;;;;2.83;2.08;;;;;;;;;;5190701;28;20057;-62
2022/05/25 13:48:18;;;;;;;2.38;2.17;;;;;;;;;;5190497;28;20450;-62
2022/05/25 13:50:53;;;;;;;1.65;1.55;;;;;;;;;;5208568;28;20019;-62
2022/05/25 13:53:37;;;;;;;2.38;2.28;;;;;;;;;;5245373;23;20048;-81
2022/05/25 13:56:11;;;;;;;8.38;3.30;;;;;;;;;;5258073;28;20100;-81
2022/05/25 13:58:43;;;;;;;7.22;2.33;;;;;;;;;;5261130;28;20009;-81
2022/05/25 14:01:15;;;;;;;1.60;1.50;;;;;;;;;;5260828;28;20379;-81
2022/05/25 14:03:50;;;;;;;3.70;1.90;;;;;;;;;;5262001;28;20024;-82
2022/05/25 14:06:20;;;;;;;1.73;1.63;;;;;;;;;;5261696;28;20023;-80
2022/05/25 14:11:46;;;;;;;6.30;2.78;;;;;;;;;;5261076;28;20115;-80
2022/05/25 14:14:17;;;;;;;1.02;1.00;;;;;;;;;;5260824;28;20048;-81
2022/05/25 14:16:50;;;;;;;3.20;1.60;;;;;;;;;;5260540;28;20036;-79
2022/05/25 14:19:22;;;;;;;3.25;1.60;;;;;;;;;;5259085;28;20027;-81
2022/05/25 14:21:54;;;;;;;5.97;1.48;;;;;;;;;;5257239;28;20078;-80
2022/05/25 14:24:27;;;;;;;1.42;1.42;;;;;;;;;;5256873;28;20036;-82
2022/05/25 14:26:59;;;;;;;5.13;1.83;;;;;;;;;;5256416;28;20478;-80
2022/05/25 14:29:31;;;;;;;1.40;1.40;;;;;;;;;;5257802;28;20018;-80
2022/05/25 14:32:15;;;;;;;1.65;1.23;;;;;;;;;;5256662;28;20016;-81
2022/05/25 14:34:46;;;;;;;1.77;1.67;;;;;;;;;;5257785;28;20486;-82
2022/05/25 14:37:17;;;;;;;3.83;2.45;;;;;;;;;;5257750;28;20017;-79
2022/05/25 14:39:49;;;;;;;1.17;1.17;;;;;;;;;;5256749;28;20017;-81
2022/05/25 14:42:21;;;;;;;4.85;1.52;;;;;;;;;;5255523;28;20023;-81
2022/05/25 14:44:53;;;;;;;2.20;2.00;;;;;;;;;;5255270;28;20017;-82
2022/05/25 14:47:33;;;;;;;7.68;1.83;;;;;;;;;;5255881;28;20020;-81
2022/05/25 14:50:24;;;;;;;1.77;1.17;;;;;;;;;;5255042;28;20050;-79
2022/05/25 14:53:04;;;;;;;1.48;1.48;;;;;;;;;;5257205;28;20025;-80
2022/05/25 14:55:37;;;;;;;1.23;1.13;;;;;;;;;;5257190;28;20029;-82
2022/05/25 14:58:09;;;;;;;6.68;2.30;;;;;;;;;;5257445;28;20088;-79
2022/05/25 15:00:42;;;;;;;1.38;1.38;;;;;;;;;;5256365;28;20020;-80
2022/05/25 15:03:26;;;;;;;2.10;2.00;;;;;;;;;;5257921;28;20104;-81
2022/05/25 15:06:07;;;;;;;4.88;2.08;;;;;;;;;;5258598;28;20184;-80
2022/05/25 15:08:39;;;;;;;1.92;1.83;;;;;;;;;;5258183;28;20020;-82
2022/05/25 15:11:21;;;;;;;1.20;1.20;;;;;;;;;;5255037;28;20028;-79
2022/05/25 15:20:13;;;;;;;5.55;1.40;;;;;;;;;;5259478;28;20074;-81
2022/05/25 15:22:49;;;;;;;2.15;1.80;;;;;;;;;;5257650;28;20025;-79
2022/05/25 15:25:35;;;;;;;4.53;1.73;;;;;;;;;;5257004;28;20024;-80
2022/05/25 15:28:07;;;;;;;1.40;1.30;;;;;;;;;;5259240;28;20080;-80
2022/05/25 15:30:37;;;;;;;1.23;1.13;;;;;;;;;;5259225;28;20500;-79
2022/05/25 15:33:09;;;;;;;0.95;0.95;;;;;;;;;;5257664;28;20029;-81
2022/05/25 15:35:40;;;;;;;2.75;1.58;;;;;;;;;;5256645;28;20016;-78
2022/05/25 15:38:11;;;;;;;0.82;0.82;;;;;;;;;;5261812;28;20099;-81
2022/05/25 15:40:45;;;;;;;1.10;1.10;;;;;;;;;;5253633;28;20016;-77
2022/05/25 15:43:15;;;;;;;2.50;1.90;;;;;;;;;;5244197;28;20032;-81
2022/05/25 15:45:47;;;;;;;1.38;1.35;;;;;;;;;;5225208;28;20021;-79
2022/05/25 15:48:19;;;;;;;8.27;2.10;;;;;;;;;;5233599;28;20009;-79
2022/05/25 15:50:50;;;;;;;1.77;1.75;;;;;;;;;;5236829;28;20072;-81
2022/05/25 15:53:22;;;;;;;3.20;1.52;;;;;;;;;;5238836;28;20013;-80
2022/05/25 15:55:53;;;;;;;2.42;2.33;;;;;;;;;;5220906;28;20032;-79
2022/05/25 15:58:25;;;;;;;1.52;1.52;;;;;;;;;;5221429;28;20026;-82
2022/05/25 16:00:56;;;;;;;1.10;1.10;;;;;;;;;;5219464;28;20437;-79
2022/05/25 16:03:30;;;;;;;1.80;1.73;;;;;;;;;;5221173;28;20025;-80
2022/05/25 16:06:01;;;;;;;1.27;1.27;;;;;;;;;;5219654;28;20044;-81
2022/05/25 16:11:23;;;;;;;1.23;1.20;;;;;;;;;;5229061;28;20029;-81